< < Back
Terminal Aerodrome Forecast


Current Version              Previous Versions:   1  2  3  4  5  6  7  8  9  

Terminal Aerodrome Forecast

546
FTUS44 KBMX 010500
TAFBHM
TAF
KBHM 010525Z 0106/0206 00000KT P6SM SKC
     FM011400 16003KT P6SM SKC=



Latest METAR

129
SAUS70 KWBC 012000 RRL
MTRBHM
METAR KBHM 011953Z VRB03KT 10SM SCT070 SCT250 29/13 A2997 RMK AO2 SLP140
T02890133


USA.gov is the U.S. government's official web portal to all federal, state and local government web resources and services.